SELYH ESOK-ESOK

Flight info

Callsign SELYH
Flight time 0h 33m
Altitude 1500
Route GA
Aircraft P28A/L-V/N

Departure

Time 2026-05-04 10:05
Airport Karlstad Airport (ESOK)

Arrival

Time 2026-05-04 10:39
Airport Karlstad Airport (ESOK)
Time Latitude Longitude Altitude Speed Heading
2026-05-04 10:04 59.44291 13.33748 335 ft 6 kts 297°
2026-05-04 10:04 59.44342 13.33619 337 ft 8 kts 10°
2026-05-04 10:04 59.44348 13.33622 337 ft 0 kts 30°
2026-05-04 10:04 59.44409 13.33670 337 ft 36 kts 26°
2026-05-04 10:05 59.44813 13.34083 393 ft 85 kts 20°
2026-05-04 10:05 59.45385 13.34572 687 ft 93 kts 13°
2026-05-04 10:05 59.45663 13.35620 899 ft 106 kts 131°
2026-05-04 10:05 59.45167 13.36871 981 ft 126 kts 129°
2026-05-04 10:06 59.44715 13.38564 836 ft 155 kts 112°
2026-05-04 10:06 59.44508 13.40745 715 ft 167 kts 97°
2026-05-04 10:06 59.44606 13.43063 680 ft 163 kts 82°
2026-05-04 10:08 59.42582 13.52878 1149 ft 163 kts 126°
2026-05-04 10:08 59.42348 13.55069 1172 ft 167 kts 94°
2026-05-04 10:08 59.42286 13.57340 1212 ft 166 kts 95°
2026-05-04 10:08 59.42213 13.59616 1216 ft 167 kts 95°
2026-05-04 10:09 59.42110 13.61905 1219 ft 170 kts 95°
2026-05-04 10:09 59.42092 13.64194 1216 ft 169 kts 89°
2026-05-04 10:09 59.42112 13.66509 1215 ft 171 kts 89°
2026-05-04 10:09 59.41857 13.68702 1207 ft 165 kts 129°
2026-05-04 10:10 59.40906 13.69691 1210 ft 153 kts 185°
2026-05-04 10:10 59.40016 13.68859 1214 ft 142 kts 227°
2026-05-04 10:10 59.39334 13.67437 1216 ft 144 kts 229°
2026-05-04 10:10 59.38647 13.65977 1223 ft 146 kts 230°
2026-05-04 10:11 59.37954 13.64510 1226 ft 147 kts 230°
2026-05-04 10:11 59.37261 13.63056 1229 ft 146 kts 229°
2026-05-04 10:11 59.36605 13.61560 1221 ft 144 kts 242°
2026-05-04 10:11 59.36510 13.59637 1214 ft 143 kts 273°
2026-05-04 10:12 59.36615 13.57694 1213 ft 142 kts 274°
2026-05-04 10:12 59.36706 13.55775 1213 ft 141 kts 274°
2026-05-04 10:12 59.36788 13.53861 1217 ft 143 kts 273°
2026-05-04 10:12 59.36787 13.51936 1204 ft 141 kts 253°
2026-05-04 10:13 59.36069 13.50710 1211 ft 148 kts 199°
2026-05-04 10:13 59.35021 13.50845 1215 ft 156 kts 171°
2026-05-04 10:13 59.34056 13.51907 1213 ft 165 kts 143°
2026-05-04 10:13 59.33233 13.53467 1220 ft 165 kts 141°
2026-05-04 10:14 59.32700 13.55413 1209 ft 167 kts 96°
2026-05-04 10:14 59.32758 13.57654 1213 ft 165 kts 104°
2026-05-04 10:16 59.27720 13.55043 1216 ft 142 kts 238°
2026-05-04 10:16 59.27689 13.53229 1215 ft 141 kts 295°
2026-05-04 10:16 59.28524 13.52207 1215 ft 151 kts 345°
2026-05-04 10:16 59.29574 13.51984 1222 ft 152 kts 351°
2026-05-04 10:17 59.30640 13.51742 1229 ft 153 kts 341°
2026-05-04 10:17 59.31504 13.50761 1218 ft 144 kts 308°
2026-05-04 10:19 59.32156 13.49189 1209 ft 149 kts 354°
2026-05-04 10:19 59.33186 13.48916 1230 ft 151 kts 345°
2026-05-04 10:19 59.34231 13.48577 1229 ft 152 kts 343°
2026-05-04 10:19 59.35274 13.48255 1230 ft 151 kts 345°
2026-05-04 10:20 59.36305 13.47876 1226 ft 148 kts 336°
2026-05-04 10:20 59.36968 13.46557 1208 ft 140 kts 284°
2026-05-04 10:20 59.36755 13.44762 1215 ft 139 kts 243°
2026-05-04 10:20 59.36732 13.42979 1204 ft 131 kts 296°
2026-05-04 10:21 59.37368 13.42025 1216 ft 134 kts 327°
2026-05-04 10:21 59.38043 13.40794 1211 ft 137 kts 287°
2026-05-04 10:21 59.37885 13.39008 1216 ft 138 kts 241°
2026-05-04 10:21 59.37326 13.37488 1222 ft 136 kts 237°
2026-05-04 10:22 59.36199 13.34412 1230 ft 142 kts 237°
2026-05-04 10:22 59.35636 13.32852 1223 ft 142 kts 239°
2026-05-04 10:22 59.35309 13.31043 1223 ft 140 kts 258°
2026-05-04 10:23 59.35085 13.29196 1223 ft 138 kts 257°
2026-05-04 10:23 59.34872 13.27354 1226 ft 139 kts 258°
2026-05-04 10:25 59.33363 13.14841 1228 ft 143 kts 257°
2026-05-04 10:25 59.33132 13.12944 1224 ft 145 kts 256°
2026-05-04 10:25 59.32639 13.11297 1212 ft 147 kts 216°
2026-05-04 10:25 59.31605 13.11029 1219 ft 156 kts 182°
2026-05-04 10:26 59.30689 13.10247 1221 ft 141 kts 234°
2026-05-04 10:26 59.30576 13.08420 1211 ft 146 kts 291°
2026-05-04 10:26 59.31364 13.07194 1212 ft 156 kts 345°
2026-05-04 10:26 59.32404 13.07763 1214 ft 165 kts 37°
2026-05-04 10:27 59.32927 13.09755 1222 ft 166 kts 65°
2026-05-04 10:27 59.33465 13.11751 1211 ft 167 kts 75°
2026-05-04 10:27 59.34014 13.13646 1212 ft 161 kts 34°
2026-05-04 10:27 59.35057 13.14199 1217 ft 157 kts
2026-05-04 10:28 59.36157 13.14529 1224 ft 161 kts
2026-05-04 10:28 59.37187 13.14143 1203 ft 141 kts 318°
2026-05-04 10:28 59.37435 13.12818 1206 ft 104 kts 253°
2026-05-04 10:28 59.36877 13.11687 1218 ft 133 kts 211°
2026-05-04 10:29 59.36007 13.10816 1233 ft 147 kts 210°
2026-05-04 10:29 59.35086 13.09879 1237 ft 149 kts 212°
2026-05-04 10:29 59.34159 13.08974 1232 ft 149 kts 210°
2026-05-04 10:29 59.33227 13.08083 1231 ft 152 kts 210°
2026-05-04 10:30 59.32286 13.07178 1229 ft 149 kts 210°
2026-05-04 10:30 59.31349 13.06276 1235 ft 151 kts 211°
2026-05-04 10:30 59.30525 13.05117 1212 ft 142 kts 240°
2026-05-04 10:30 59.30502 13.03285 1212 ft 143 kts 295°
2026-05-04 10:31 59.31337 13.02265 1213 ft 155 kts 349°
2026-05-04 10:31 59.32387 13.02950 1220 ft 163 kts 28°
2026-05-04 10:32 59.38186 13.10290 1224 ft 165 kts 29°
2026-05-04 10:33 59.39077 13.11710 1210 ft 170 kts 56°
2026-05-04 10:33 59.39327 13.13965 1216 ft 172 kts 88°
2026-05-04 10:33 59.39357 13.16309 1224 ft 172 kts 89°
2026-05-04 10:33 59.39180 13.18612 1214 ft 172 kts 112°
2026-05-04 10:34 59.39148 13.20892 1204 ft 170 kts 66°
2026-05-04 10:34 59.39948 13.22356 1205 ft 159 kts 13°
2026-05-04 10:34 59.40963 13.21990 1401 ft 149 kts 318°
2026-05-04 10:34 59.41339 13.20264 1395 ft 139 kts 264°
2026-05-04 10:35 59.40801 13.18725 1402 ft 146 kts 218°
2026-05-04 10:35 59.39827 13.18005 1410 ft 154 kts 198°
2026-05-04 10:35 59.38760 13.18231 1397 ft 166 kts 155°
2026-05-04 10:35 59.38106 13.20091 1391 ft 173 kts 102°
2026-05-04 10:36 59.38380 13.22290 1404 ft 165 kts 49°
2026-05-04 10:36 59.39051 13.24088 1402 ft 163 kts 58°
2026-05-04 10:36 59.39531 13.26125 1420 ft 165 kts 65°
2026-05-04 10:36 59.39983 13.28204 1422 ft 166 kts 64°
2026-05-04 10:37 59.40481 13.30261 1235 ft 163 kts 48°
2026-05-04 10:37 59.41331 13.31063 931 ft 116 kts 15°
2026-05-04 10:37 59.41977 13.31480 825 ft 88 kts 20°
2026-05-04 10:37 59.42532 13.31918 774 ft 86 kts 23°
2026-05-04 10:39 59.44266 13.33851 336 ft 16 kts 118°
2026-05-04 10:39 59.44216 13.34062 334 ft 12 kts 97°
2026-05-04 10:39 59.44335 13.34215 333 ft 31 kts 25°
2026-05-04 10:40 59.44517 13.34387 333 ft 22 kts 25°
2026-05-04 10:40 59.44562 13.34479 332 ft 8 kts 332°
2026-05-04 10:40 59.44566 13.34437 332 ft 0 kts 263°